sensor_id;sensor_type;location;lat;lon;timestamp;temperature;humidity
27506;DHT22;14939;43.596;1.320;2023-03-14T00:01:23;9.30;99.90
27506;DHT22;14939;43.596;1.320;2023-03-14T00:03:50;9.40;99.90
27506;DHT22;14939;43.596;1.320;2023-03-14T00:06:17;9.60;99.90
27506;DHT22;14939;43.596;1.320;2023-03-14T00:08:44;9.60;99.90
27506;DHT22;14939;43.596;1.320;2023-03-14T00:11:14;9.50;99.90
27506;DHT22;14939;43.596;1.320;2023-03-14T00:13:41;9.40;99.90
27506;DHT22;14939;43.596;1.320;2023-03-14T00:16:09;9.30;99.90
27506;DHT22;14939;43.596;1.320;2023-03-14T00:18:36;9.20;99.90
27506;DHT22;14939;43.596;1.320;2023-03-14T00:21:03;9.10;99.90
27506;DHT22;14939;43.596;1.320;2023-03-14T00:23:31;9.10;99.90
27506;DHT22;14939;43.596;1.320;2023-03-14T00:26:01;9.20;99.90
27506;DHT22;14939;43.596;1.320;2023-03-14T00:28:27;9.40;99.90
27506;DHT22;14939;43.596;1.320;2023-03-14T00:30:53;9.30;99.90
27506;DHT22;14939;43.596;1.320;2023-03-14T00:33:19;9.40;99.90
27506;DHT22;14939;43.596;1.320;2023-03-14T00:35:55;9.50;99.90
27506;DHT22;14939;43.596;1.320;2023-03-14T00:38:22;9.60;99.90
27506;DHT22;14939;43.596;1.320;2023-03-14T00:40:47;9.60;99.90
27506;DHT22;14939;43.596;1.320;2023-03-14T00:43:13;9.50;99.90
27506;DHT22;14939;43.596;1.320;2023-03-14T00:45:39;9.40;99.90
27506;DHT22;14939;43.596;1.320;2023-03-14T00:48:04;9.30;99.90
27506;DHT22;14939;43.596;1.320;2023-03-14T00:50:30;9.20;99.90
27506;DHT22;14939;43.596;1.320;2023-03-14T00:52:56;9.10;99.90
27506;DHT22;14939;43.596;1.320;2023-03-14T00:55:22;9.00;99.90
27506;DHT22;14939;43.596;1.320;2023-03-14T00:57:48;9.00;99.90
27506;DHT22;14939;43.596;1.320;2023-03-14T01:00:14;8.90;99.90
27506;DHT22;14939;43.596;1.320;2023-03-14T01:02:39;8.90;99.90
27506;DHT22;14939;43.596;1.320;2023-03-14T01:05:05;8.90;99.90
27506;DHT22;14939;43.596;1.320;2023-03-14T01:07:31;9.10;99.90
27506;DHT22;14939;43.596;1.320;2023-03-14T01:09:57;9.10;99.90
27506;DHT22;14939;43.596;1.320;2023-03-14T01:12:22;9.10;99.90
27506;DHT22;14939;43.596;1.320;2023-03-14T01:14:48;9.20;99.90
27506;DHT22;14939;43.596;1.320;2023-03-14T01:17:14;9.30;99.90
27506;DHT22;14939;43.596;1.320;2023-03-14T01:19:39;9.30;99.90
27506;DHT22;14939;43.596;1.320;2023-03-14T01:22:05;9.40;99.90
27506;DHT22;14939;43.596;1.320;2023-03-14T01:24:31;10.00;99.90
27506;DHT22;14939;43.596;1.320;2023-03-14T01:26:56;10.10;99.90
27506;DHT22;14939;43.596;1.320;2023-03-14T01:29:22;10.30;99.90
27506;DHT22;14939;43.596;1.320;2023-03-14T01:31:48;10.40;99.90
27506;DHT22;14939;43.596;1.320;2023-03-14T01:34:13;10.40;99.90
27506;DHT22;14939;43.596;1.320;2023-03-14T01:36:39;10.70;99.90
27506;DHT22;14939;43.596;1.320;2023-03-14T01:39:05;10.90;99.90
27506;DHT22;14939;43.596;1.320;2023-03-14T01:41:32;11.10;99.90
27506;DHT22;14939;43.596;1.320;2023-03-14T01:43:58;11.10;99.90
27506;DHT22;14939;43.596;1.320;2023-03-14T01:46:41;11.10;99.90
27506;DHT22;14939;43.596;1.320;2023-03-14T01:49:32;11.20;99.90
27506;DHT22;14939;43.596;1.320;2023-03-14T01:52:04;11.30;99.90
27506;DHT22;14939;43.596;1.320;2023-03-14T01:54:40;11.30;99.90
27506;DHT22;14939;43.596;1.320;2023-03-14T01:59:37;11.30;99.90
27506;DHT22;14939;43.596;1.320;2023-03-14T02:02:06;11.40;99.90
27506;DHT22;14939;43.596;1.320;2023-03-14T02:04:36;11.30;99.90
27506;DHT22;14939;43.596;1.320;2023-03-14T02:09:43;11.40;99.90
27506;DHT22;14939;43.596;1.320;2023-03-14T02:12:12;11.50;99.90
27506;DHT22;14939;43.596;1.320;2023-03-14T02:14:39;11.50;99.90
27506;DHT22;14939;43.596;1.320;2023-03-14T02:17:08;11.50;99.90
27506;DHT22;14939;43.596;1.320;2023-03-14T02:19:49;11.50;99.90
27506;DHT22;14939;43.596;1.320;2023-03-14T02:22:16;11.50;99.90
27506;DHT22;14939;43.596;1.320;2023-03-14T02:27:21;11.40;99.90
27506;DHT22;14939;43.596;1.320;2023-03-14T02:29:56;11.40;99.90
27506;DHT22;14939;43.596;1.320;2023-03-14T02:32:24;11.40;99.90
27506;DHT22;14939;43.596;1.320;2023-03-14T02:34:55;11.30;99.90
27506;DHT22;14939;43.596;1.320;2023-03-14T02:37:24;11.30;99.90
27506;DHT22;14939;43.596;1.320;2023-03-14T02:39:52;11.40;99.90
27506;DHT22;14939;43.596;1.320;2023-03-14T02:42:17;11.20;99.90
27506;DHT22;14939;43.596;1.320;2023-03-14T02:44:55;11.20;99.90
27506;DHT22;14939;43.596;1.320;2023-03-14T02:47:29;11.00;99.90
27506;DHT22;14939;43.596;1.320;2023-03-14T02:50:02;10.90;99.90
27506;DHT22;14939;43.596;1.320;2023-03-14T02:52:29;10.80;99.90
27506;DHT22;14939;43.596;1.320;2023-03-14T02:54:55;10.80;99.90
27506;DHT22;14939;43.596;1.320;2023-03-14T02:57:20;10.90;99.90
27506;DHT22;14939;43.596;1.320;2023-03-14T02:59:46;10.90;99.90
27506;DHT22;14939;43.596;1.320;2023-03-14T03:02:11;11.10;99.90
27506;DHT22;14939;43.596;1.320;2023-03-14T03:04:37;11.20;99.90
27506;DHT22;14939;43.596;1.320;2023-03-14T03:07:03;11.20;99.90
27506;DHT22;14939;43.596;1.320;2023-03-14T03:09:28;11.10;99.90
27506;DHT22;14939;43.596;1.320;2023-03-14T03:11:54;11.10;99.90
27506;DHT22;14939;43.596;1.320;2023-03-14T03:14:20;11.10;99.90
27506;DHT22;14939;43.596;1.320;2023-03-14T03:16:45;11.20;99.90
27506;DHT22;14939;43.596;1.320;2023-03-14T03:19:11;11.20;99.90
27506;DHT22;14939;43.596;1.320;2023-03-14T03:21:39;11.20;99.90
27506;DHT22;14939;43.596;1.320;2023-03-14T03:24:04;11.30;99.90
27506;DHT22;14939;43.596;1.320;2023-03-14T03:26:30;11.30;99.90
27506;DHT22;14939;43.596;1.320;2023-03-14T03:28:56;11.30;99.90
27506;DHT22;14939;43.596;1.320;2023-03-14T03:31:21;11.20;99.90
27506;DHT22;14939;43.596;1.320;2023-03-14T03:33:47;11.10;99.90
27506;DHT22;14939;43.596;1.320;2023-03-14T03:36:13;11.00;99.90
27506;DHT22;14939;43.596;1.320;2023-03-14T03:38:38;11.00;99.90
27506;DHT22;14939;43.596;1.320;2023-03-14T03:41:06;10.80;99.90
27506;DHT22;14939;43.596;1.320;2023-03-14T03:43:32;10.50;99.90
27506;DHT22;14939;43.596;1.320;2023-03-14T03:45:57;10.40;99.90
27506;DHT22;14939;43.596;1.320;2023-03-14T03:48:23;10.40;99.90
27506;DHT22;14939;43.596;1.320;2023-03-14T03:50:49;10.60;99.90
27506;DHT22;14939;43.596;1.320;2023-03-14T03:53:14;10.60;99.90
27506;DHT22;14939;43.596;1.320;2023-03-14T03:55:41;10.60;99.90
27506;DHT22;14939;43.596;1.320;2023-03-14T03:58:07;10.60;99.90
27506;DHT22;14939;43.596;1.320;2023-03-14T04:00:33;10.50;99.90
27506;DHT22;14939;43.596;1.320;2023-03-14T04:02:59;10.40;99.90
27506;DHT22;14939;43.596;1.320;2023-03-14T04:05:26;9.80;99.90
27506;DHT22;14939;43.596;1.320;2023-03-14T04:07:51;9.60;99.90
27506;DHT22;14939;43.596;1.320;2023-03-14T04:10:17;9.10;99.90
27506;DHT22;14939;43.596;1.320;2023-03-14T04:12:43;8.90;99.90
27506;DHT22;14939;43.596;1.320;2023-03-14T04:15:09;8.80;99.90
27506;DHT22;14939;43.596;1.320;2023-03-14T04:17:35;9.00;99.90
27506;DHT22;14939;43.596;1.320;2023-03-14T04:20:00;9.00;99.90
27506;DHT22;14939;43.596;1.320;2023-03-14T04:22:26;9.30;99.90
27506;DHT22;14939;43.596;1.320;2023-03-14T04:24:52;9.30;99.90
27506;DHT22;14939;43.596;1.320;2023-03-14T04:27:17;9.30;99.90
27506;DHT22;14939;43.596;1.320;2023-03-14T04:29:43;9.30;99.90
27506;DHT22;14939;43.596;1.320;2023-03-14T04:32:09;9.20;99.90
27506;DHT22;14939;43.596;1.320;2023-03-14T04:34:35;9.30;99.90
27506;DHT22;14939;43.596;1.320;2023-03-14T04:37:00;9.30;99.90
27506;DHT22;14939;43.596;1.320;2023-03-14T04:39:26;9.30;99.90
27506;DHT22;14939;43.596;1.320;2023-03-14T04:41:52;9.40;99.90
27506;DHT22;14939;43.596;1.320;2023-03-14T04:44:18;9.40;99.90
27506;DHT22;14939;43.596;1.320;2023-03-14T04:46:43;9.50;99.90
27506;DHT22;14939;43.596;1.320;2023-03-14T04:49:09;9.50;99.90
27506;DHT22;14939;43.596;1.320;2023-03-14T04:51:35;9.50;99.90
27506;DHT22;14939;43.596;1.320;2023-03-14T04:54:00;9.50;99.90
27506;DHT22;14939;43.596;1.320;2023-03-14T04:56:26;9.50;99.90
27506;DHT22;14939;43.596;1.320;2023-03-14T04:58:53;9.50;99.90
27506;DHT22;14939;43.596;1.320;2023-03-14T05:01:18;9.50;99.90
27506;DHT22;14939;43.596;1.320;2023-03-14T05:03:44;9.50;99.90
27506;DHT22;14939;43.596;1.320;2023-03-14T05:06:10;9.50;99.90
27506;DHT22;14939;43.596;1.320;2023-03-14T05:08:35;9.50;99.90
27506;DHT22;14939;43.596;1.320;2023-03-14T05:11:01;9.60;99.90
27506;DHT22;14939;43.596;1.320;2023-03-14T05:13:28;9.60;99.90
27506;DHT22;14939;43.596;1.320;2023-03-14T05:16:01;9.60;99.90
27506;DHT22;14939;43.596;1.320;2023-03-14T05:18:27;9.50;99.90
27506;DHT22;14939;43.596;1.320;2023-03-14T05:20:53;9.60;99.90
27506;DHT22;14939;43.596;1.320;2023-03-14T05:23:19;9.70;99.90
27506;DHT22;14939;43.596;1.320;2023-03-14T05:25:44;9.60;99.90
27506;DHT22;14939;43.596;1.320;2023-03-14T05:28:10;9.60;99.90
27506;DHT22;14939;43.596;1.320;2023-03-14T05:30:36;9.60;99.90
27506;DHT22;14939;43.596;1.320;2023-03-14T05:33:02;9.60;99.90
27506;DHT22;14939;43.596;1.320;2023-03-14T05:35:27;9.60;99.90
27506;DHT22;14939;43.596;1.320;2023-03-14T05:37:53;9.60;99.90
27506;DHT22;14939;43.596;1.320;2023-03-14T05:40:19;9.60;99.90
27506;DHT22;14939;43.596;1.320;2023-03-14T05:42:44;9.60;99.90
27506;DHT22;14939;43.596;1.320;2023-03-14T05:45:10;9.60;99.90
27506;DHT22;14939;43.596;1.320;2023-03-14T05:47:36;9.50;99.90
27506;DHT22;14939;43.596;1.320;2023-03-14T05:50:02;9.70;99.90
27506;DHT22;14939;43.596;1.320;2023-03-14T05:52:28;9.50;99.90
27506;DHT22;14939;43.596;1.320;2023-03-14T05:54:53;9.50;99.90
27506;DHT22;14939;43.596;1.320;2023-03-14T05:57:19;9.50;99.90
27506;DHT22;14939;43.596;1.320;2023-03-14T05:59:45;9.50;99.90
27506;DHT22;14939;43.596;1.320;2023-03-14T06:02:10;9.40;99.90
27506;DHT22;14939;43.596;1.320;2023-03-14T06:04:36;9.30;99.90
27506;DHT22;14939;43.596;1.320;2023-03-14T06:07:02;9.20;99.90
27506;DHT22;14939;43.596;1.320;2023-03-14T06:09:27;9.10;99.90
27506;DHT22;14939;43.596;1.320;2023-03-14T06:11:53;9.00;99.90
27506;DHT22;14939;43.596;1.320;2023-03-14T06:14:19;9.00;99.90
27506;DHT22;14939;43.596;1.320;2023-03-14T06:16:44;9.00;99.90
27506;DHT22;14939;43.596;1.320;2023-03-14T06:19:10;9.20;99.90
27506;DHT22;14939;43.596;1.320;2023-03-14T06:21:37;9.30;99.90
27506;DHT22;14939;43.596;1.320;2023-03-14T06:24:02;9.40;99.90
27506;DHT22;14939;43.596;1.320;2023-03-14T06:26:29;9.40;99.90
27506;DHT22;14939;43.596;1.320;2023-03-14T06:28:55;9.40;99.90
27506;DHT22;14939;43.596;1.320;2023-03-14T06:31:20;9.50;99.90
27506;DHT22;14939;43.596;1.320;2023-03-14T06:33:46;9.50;99.90
27506;DHT22;14939;43.596;1.320;2023-03-14T06:36:12;9.40;99.90
27506;DHT22;14939;43.596;1.320;2023-03-14T06:38:37;9.40;99.90
27506;DHT22;14939;43.596;1.320;2023-03-14T06:41:07;9.40;99.90
27506;DHT22;14939;43.596;1.320;2023-03-14T06:43:33;9.40;99.90
27506;DHT22;14939;43.596;1.320;2023-03-14T06:45:59;9.30;99.90
27506;DHT22;14939;43.596;1.320;2023-03-14T06:48:24;9.40;99.90
27506;DHT22;14939;43.596;1.320;2023-03-14T06:50:50;9.30;99.90
27506;DHT22;14939;43.596;1.320;2023-03-14T06:53:16;9.70;99.90
27506;DHT22;14939;43.596;1.320;2023-03-14T06:55:41;9.60;99.90
27506;DHT22;14939;43.596;1.320;2023-03-14T06:58:08;9.70;99.90
27506;DHT22;14939;43.596;1.320;2023-03-14T07:00:34;9.70;99.90
27506;DHT22;14939;43.596;1.320;2023-03-14T07:03:00;9.60;99.90
27506;DHT22;14939;43.596;1.320;2023-03-14T07:05:26;9.70;99.90
27506;DHT22;14939;43.596;1.320;2023-03-14T07:07:51;9.70;99.90
27506;DHT22;14939;43.596;1.320;2023-03-14T07:10:17;9.50;99.90
27506;DHT22;14939;43.596;1.320;2023-03-14T07:12:43;9.60;99.90
27506;DHT22;14939;43.596;1.320;2023-03-14T07:15:09;9.60;99.90
27506;DHT22;14939;43.596;1.320;2023-03-14T07:17:34;9.60;99.90
27506;DHT22;14939;43.596;1.320;2023-03-14T07:20:00;9.70;99.90
27506;DHT22;14939;43.596;1.320;2023-03-14T07:22:26;9.70;99.90
27506;DHT22;14939;43.596;1.320;2023-03-14T07:24:52;9.70;99.90
27506;DHT22;14939;43.596;1.320;2023-03-14T07:27:17;9.80;99.90
27506;DHT22;14939;43.596;1.320;2023-03-14T07:29:43;9.90;99.90
27506;DHT22;14939;43.596;1.320;2023-03-14T07:32:09;10.00;99.90
27506;DHT22;14939;43.596;1.320;2023-03-14T07:34:35;10.00;99.90
27506;DHT22;14939;43.596;1.320;2023-03-14T07:37:00;10.20;99.90
27506;DHT22;14939;43.596;1.320;2023-03-14T07:39:26;10.30;99.90
27506;DHT22;14939;43.596;1.320;2023-03-14T07:41:51;10.30;99.90
27506;DHT22;14939;43.596;1.320;2023-03-14T07:44:17;10.40;99.90
27506;DHT22;14939;43.596;1.320;2023-03-14T07:46:43;10.40;99.90
27506;DHT22;14939;43.596;1.320;2023-03-14T07:49:09;10.50;99.90
27506;DHT22;14939;43.596;1.320;2023-03-14T07:51:34;10.50;99.90
27506;DHT22;14939;43.596;1.320;2023-03-14T07:54:00;10.50;99.90
27506;DHT22;14939;43.596;1.320;2023-03-14T07:56:26;10.40;99.90
27506;DHT22;14939;43.596;1.320;2023-03-14T07:58:51;10.30;99.90
27506;DHT22;14939;43.596;1.320;2023-03-14T08:01:17;10.30;99.90
27506;DHT22;14939;43.596;1.320;2023-03-14T08:03:43;10.30;99.90
27506;DHT22;14939;43.596;1.320;2023-03-14T08:06:08;10.30;99.90
27506;DHT22;14939;43.596;1.320;2023-03-14T08:08:34;10.40;99.90
27506;DHT22;14939;43.596;1.320;2023-03-14T08:11:07;10.40;99.90
27506;DHT22;14939;43.596;1.320;2023-03-14T08:13:37;10.30;99.90
27506;DHT22;14939;43.596;1.320;2023-03-14T08:16:04;10.20;99.90
27506;DHT22;14939;43.596;1.320;2023-03-14T08:18:30;10.10;99.90
27506;DHT22;14939;43.596;1.320;2023-03-14T08:20:56;10.30;99.90
27506;DHT22;14939;43.596;1.320;2023-03-14T08:23:21;10.00;99.90
27506;DHT22;14939;43.596;1.320;2023-03-14T08:25:51;10.00;99.90
27506;DHT22;14939;43.596;1.320;2023-03-14T08:28:18;10.20;99.90
27506;DHT22;14939;43.596;1.320;2023-03-14T08:30:44;10.20;99.90
27506;DHT22;14939;43.596;1.320;2023-03-14T08:33:09;10.30;99.90
27506;DHT22;14939;43.596;1.320;2023-03-14T08:35:37;10.60;99.90
27506;DHT22;14939;43.596;1.320;2023-03-14T08:38:03;10.90;99.90
27506;DHT22;14939;43.596;1.320;2023-03-14T08:40:29;11.20;99.90
27506;DHT22;14939;43.596;1.320;2023-03-14T08:42:54;11.30;99.90
27506;DHT22;14939;43.596;1.320;2023-03-14T08:45:20;11.40;99.90
27506;DHT22;14939;43.596;1.320;2023-03-14T08:47:46;11.40;99.90
27506;DHT22;14939;43.596;1.320;2023-03-14T08:50:13;11.50;99.90
27506;DHT22;14939;43.596;1.320;2023-03-14T08:52:39;11.50;99.90
27506;DHT22;14939;43.596;1.320;2023-03-14T08:55:09;11.60;99.90
27506;DHT22;14939;43.596;1.320;2023-03-14T08:57:35;11.70;99.90
27506;DHT22;14939;43.596;1.320;2023-03-14T09:00:03;11.80;99.90
27506;DHT22;14939;43.596;1.320;2023-03-14T09:02:31;11.80;99.90
27506;DHT22;14939;43.596;1.320;2023-03-14T09:04:56;11.90;99.90
27506;DHT22;14939;43.596;1.320;2023-03-14T09:07:22;12.00;99.90
27506;DHT22;14939;43.596;1.320;2023-03-14T09:09:48;11.90;99.90
27506;DHT22;14939;43.596;1.320;2023-03-14T09:12:13;12.00;99.90
27506;DHT22;14939;43.596;1.320;2023-03-14T09:14:39;11.90;99.90
27506;DHT22;14939;43.596;1.320;2023-03-14T09:17:05;11.70;99.90
27506;DHT22;14939;43.596;1.320;2023-03-14T09:19:31;11.60;99.90
27506;DHT22;14939;43.596;1.320;2023-03-14T09:21:57;10.90;99.90
27506;DHT22;14939;43.596;1.320;2023-03-14T09:24:22;9.90;99.90
27506;DHT22;14939;43.596;1.320;2023-03-14T09:26:48;9.60;99.90
27506;DHT22;14939;43.596;1.320;2023-03-14T09:29:13;9.50;99.90
27506;DHT22;14939;43.596;1.320;2023-03-14T09:31:39;9.40;99.90
27506;DHT22;14939;43.596;1.320;2023-03-14T09:34:05;9.70;99.90
27506;DHT22;14939;43.596;1.320;2023-03-14T09:36:31;9.70;99.90
27506;DHT22;14939;43.596;1.320;2023-03-14T09:38:56;9.80;99.90
27506;DHT22;14939;43.596;1.320;2023-03-14T09:41:29;10.30;99.90
27506;DHT22;14939;43.596;1.320;2023-03-14T09:44:45;10.40;99.90
27506;DHT22;14939;43.596;1.320;2023-03-14T09:46:53;10.50;99.90
27506;DHT22;14939;43.596;1.320;2023-03-14T09:49:27;10.60;99.90
27506;DHT22;14939;43.596;1.320;2023-03-14T09:51:55;10.30;99.90
27506;DHT22;14939;43.596;1.320;2023-03-14T09:56:55;10.10;99.90
27506;DHT22;14939;43.596;1.320;2023-03-14T09:59:21;9.80;99.90
27506;DHT22;14939;43.596;1.320;2023-03-14T10:01:50;9.80;99.90
27506;DHT22;14939;43.596;1.320;2023-03-14T10:04:21;9.80;99.90
27506;DHT22;14939;43.596;1.320;2023-03-14T10:06:48;9.80;99.90
27506;DHT22;14939;43.596;1.320;2023-03-14T10:09:19;9.70;99.90
27506;DHT22;14939;43.596;1.320;2023-03-14T10:11:54;9.80;99.90
27506;DHT22;14939;43.596;1.320;2023-03-14T10:14:30;10.10;99.90
27506;DHT22;14939;43.596;1.320;2023-03-14T10:17:05;10.40;99.90
27506;DHT22;14939;43.596;1.320;2023-03-14T10:19:31;10.90;99.90
27506;DHT22;14939;43.596;1.320;2023-03-14T10:22:01;11.00;99.90
27506;DHT22;14939;43.596;1.320;2023-03-14T10:24:30;10.90;99.90
27506;DHT22;14939;43.596;1.320;2023-03-14T10:27:04;11.10;99.90
27506;DHT22;14939;43.596;1.320;2023-03-14T10:29:31;11.00;99.90
27506;DHT22;14939;43.596;1.320;2023-03-14T10:32:02;10.90;99.90
27506;DHT22;14939;43.596;1.320;2023-03-14T10:34:38;10.60;99.90
27506;DHT22;14939;43.596;1.320;2023-03-14T10:37:21;10.50;99.90
27506;DHT22;14939;43.596;1.320;2023-03-14T10:40:00;10.70;99.90
27506;DHT22;14939;43.596;1.320;2023-03-14T10:42:39;10.80;99.90
27506;DHT22;14939;43.596;1.320;2023-03-14T10:47:50;11.20;99.90
27506;DHT22;14939;43.596;1.320;2023-03-14T10:50:27;11.60;99.90
27506;DHT22;14939;43.596;1.320;2023-03-14T10:52:54;12.10;99.90
27506;DHT22;14939;43.596;1.320;2023-03-14T10:55:20;12.40;99.90
27506;DHT22;14939;43.596;1.320;2023-03-14T10:57:46;12.50;99.90
27506;DHT22;14939;43.596;1.320;2023-03-14T11:00:17;12.30;99.90
27506;DHT22;14939;43.596;1.320;2023-03-14T11:03:10;9.10;99.90
27506;DHT22;14939;43.596;1.320;2023-03-14T11:05:49;6.60;99.90
27506;DHT22;14939;43.596;1.320;2023-03-14T11:10:54;7.50;99.90
27506;DHT22;14939;43.596;1.320;2023-03-14T11:13:35;8.00;99.90
27506;DHT22;14939;43.596;1.320;2023-03-14T11:16:23;8.30;99.90
27506;DHT22;14939;43.596;1.320;2023-03-14T11:21:43;9.00;99.90
27506;DHT22;14939;43.596;1.320;2023-03-14T11:29:41;8.90;99.90
27506;DHT22;14939;43.596;1.320;2023-03-14T11:32:23;8.90;99.90
27506;DHT22;14939;43.596;1.320;2023-03-14T11:34:54;9.00;99.90
27506;DHT22;14939;43.596;1.320;2023-03-14T11:37:48;8.80;99.90
27506;DHT22;14939;43.596;1.320;2023-03-14T11:40:27;8.90;99.90
27506;DHT22;14939;43.596;1.320;2023-03-14T11:45:38;8.80;99.90
27506;DHT22;14939;43.596;1.320;2023-03-14T11:48:29;9.00;99.90
27506;DHT22;14939;43.596;1.320;2023-03-14T11:50:55;9.30;99.90
27506;DHT22;14939;43.596;1.320;2023-03-14T11:56:22;9.60;99.90
27506;DHT22;14939;43.596;1.320;2023-03-14T11:59:07;9.60;99.90
27506;DHT22;14939;43.596;1.320;2023-03-14T12:01:48;9.60;99.90
27506;DHT22;14939;43.596;1.320;2023-03-14T12:07:03;9.50;99.90
27506;DHT22;14939;43.596;1.320;2023-03-14T12:09:32;9.60;99.90
27506;DHT22;14939;43.596;1.320;2023-03-14T12:12:04;9.70;99.90
27506;DHT22;14939;43.596;1.320;2023-03-14T12:14:33;9.00;99.90
27506;DHT22;14939;43.596;1.320;2023-03-14T12:20:20;9.70;99.90
27506;DHT22;14939;43.596;1.320;2023-03-14T12:23:02;9.80;99.90
27506;DHT22;14939;43.596;1.320;2023-03-14T12:25:31;9.70;99.90
27506;DHT22;14939;43.596;1.320;2023-03-14T12:33:11;9.80;99.90
27506;DHT22;14939;43.596;1.320;2023-03-14T12:35:40;9.90;99.90
27506;DHT22;14939;43.596;1.320;2023-03-14T12:38:32;9.90;99.90
27506;DHT22;14939;43.596;1.320;2023-03-14T12:41:23;10.40;99.90
27506;DHT22;14939;43.596;1.320;2023-03-14T12:43:50;10.90;99.90
27506;DHT22;14939;43.596;1.320;2023-03-14T12:46:26;11.00;99.90
27506;DHT22;14939;43.596;1.320;2023-03-14T12:51:38;10.90;99.90
27506;DHT22;14939;43.596;1.320;2023-03-14T13:04:59;10.30;99.90
27506;DHT22;14939;43.596;1.320;2023-03-14T13:12:49;10.70;99.90
27506;DHT22;14939;43.596;1.320;2023-03-14T13:15:27;10.50;99.90
27506;DHT22;14939;43.596;1.320;2023-03-14T13:17:56;10.80;99.90
27506;DHT22;14939;43.596;1.320;2023-03-14T13:20:41;11.00;99.90
27506;DHT22;14939;43.596;1.320;2023-03-14T13:23:24;10.90;99.90
27506;DHT22;14939;43.596;1.320;2023-03-14T13:25:50;10.90;99.90
27506;DHT22;14939;43.596;1.320;2023-03-14T13:28:16;10.90;99.90
27506;DHT22;14939;43.596;1.320;2023-03-14T13:30:44;10.90;99.90
27506;DHT22;14939;43.596;1.320;2023-03-14T13:33:15;10.80;99.90
27506;DHT22;14939;43.596;1.320;2023-03-14T13:36:02;11.00;99.90
27506;DHT22;14939;43.596;1.320;2023-03-14T13:38:31;11.00;99.90
27506;DHT22;14939;43.596;1.320;2023-03-14T13:40:59;11.10;99.90
27506;DHT22;14939;43.596;1.320;2023-03-14T13:43:30;11.30;99.90
27506;DHT22;14939;43.596;1.320;2023-03-14T13:46:01;10.80;99.90
27506;DHT22;14939;43.596;1.320;2023-03-14T13:48:29;8.90;99.90
27506;DHT22;14939;43.596;1.320;2023-03-14T13:51:10;8.50;99.90
27506;DHT22;14939;43.596;1.320;2023-03-14T13:53:54;8.50;99.90
27506;DHT22;14939;43.596;1.320;2023-03-14T13:56:21;8.60;99.90
27506;DHT22;14939;43.596;1.320;2023-03-14T13:58:48;8.50;99.90
27506;DHT22;14939;43.596;1.320;2023-03-14T14:01:27;8.50;99.90
27506;DHT22;14939;43.596;1.320;2023-03-14T14:03:56;8.80;99.90
27506;DHT22;14939;43.596;1.320;2023-03-14T14:06:32;9.00;99.90
27506;DHT22;14939;43.596;1.320;2023-03-14T14:09:11;8.80;99.90
27506;DHT22;14939;43.596;1.320;2023-03-14T14:14:08;9.00;99.90
27506;DHT22;14939;43.596;1.320;2023-03-14T14:16:36;9.20;99.90
27506;DHT22;14939;43.596;1.320;2023-03-14T14:19:02;9.40;99.90
27506;DHT22;14939;43.596;1.320;2023-03-14T14:21:28;9.50;99.90
27506;DHT22;14939;43.596;1.320;2023-03-14T14:23:54;9.90;99.90
27506;DHT22;14939;43.596;1.320;2023-03-14T14:26:20;9.90;99.90
27506;DHT22;14939;43.596;1.320;2023-03-14T14:28:46;9.80;99.90
27506;DHT22;14939;43.596;1.320;2023-03-14T14:33:45;9.50;99.90
27506;DHT22;14939;43.596;1.320;2023-03-14T14:38:49;10.10;99.90
27506;DHT22;14939;43.596;1.320;2023-03-14T14:41:15;10.20;99.90
27506;DHT22;14939;43.596;1.320;2023-03-14T14:43:41;10.50;99.90
27506;DHT22;14939;43.596;1.320;2023-03-14T14:46:08;10.50;99.90
27506;DHT22;14939;43.596;1.320;2023-03-14T14:48:38;10.40;99.90
27506;DHT22;14939;43.596;1.320;2023-03-14T14:51:06;10.10;99.90
27506;DHT22;14939;43.596;1.320;2023-03-14T14:53:40;10.00;99.90
27506;DHT22;14939;43.596;1.320;2023-03-14T14:56:16;9.70;99.90
27506;DHT22;14939;43.596;1.320;2023-03-14T14:58:45;9.10;99.90
27506;DHT22;14939;43.596;1.320;2023-03-14T15:01:24;8.90;99.90
27506;DHT22;14939;43.596;1.320;2023-03-14T15:03:53;8.80;99.90
27506;DHT22;14939;43.596;1.320;2023-03-14T15:06:20;8.90;99.90
27506;DHT22;14939;43.596;1.320;2023-03-14T15:08:47;9.10;99.90
27506;DHT22;14939;43.596;1.320;2023-03-14T15:11:17;9.40;99.90
27506;DHT22;14939;43.596;1.320;2023-03-14T15:13:43;9.70;99.90
27506;DHT22;14939;43.596;1.320;2023-03-14T15:16:15;9.90;99.90
27506;DHT22;14939;43.596;1.320;2023-03-14T15:18:42;9.80;99.90
27506;DHT22;14939;43.596;1.320;2023-03-14T15:21:10;9.90;99.90
27506;DHT22;14939;43.596;1.320;2023-03-14T15:23:36;9.90;99.90
27506;DHT22;14939;43.596;1.320;2023-03-14T15:26:02;10.20;99.90
27506;DHT22;14939;43.596;1.320;2023-03-14T15:28:29;10.30;99.90
27506;DHT22;14939;43.596;1.320;2023-03-14T15:30:57;10.40;99.90
27506;DHT22;14939;43.596;1.320;2023-03-14T15:33:24;10.50;99.90
27506;DHT22;14939;43.596;1.320;2023-03-14T15:35:50;10.30;99.90
27506;DHT22;14939;43.596;1.320;2023-03-14T15:38:19;10.20;99.90
27506;DHT22;14939;43.596;1.320;2023-03-14T15:40:51;10.00;99.90
27506;DHT22;14939;43.596;1.320;2023-03-14T15:43:17;9.90;99.90
27506;DHT22;14939;43.596;1.320;2023-03-14T15:45:43;10.00;99.90
27506;DHT22;14939;43.596;1.320;2023-03-14T15:48:18;10.00;99.90
27506;DHT22;14939;43.596;1.320;2023-03-14T15:50:44;10.20;99.90
27506;DHT22;14939;43.596;1.320;2023-03-14T15:53:11;10.50;99.90
27506;DHT22;14939;43.596;1.320;2023-03-14T15:55:37;10.60;99.90
27506;DHT22;14939;43.596;1.320;2023-03-14T15:58:03;10.60;99.90
27506;DHT22;14939;43.596;1.320;2023-03-14T16:00:29;10.80;99.90
27506;DHT22;14939;43.596;1.320;2023-03-14T16:02:55;10.80;99.90
27506;DHT22;14939;43.596;1.320;2023-03-14T16:05:22;11.10;99.90
27506;DHT22;14939;43.596;1.320;2023-03-14T16:07:48;10.90;99.90
27506;DHT22;14939;43.596;1.320;2023-03-14T16:10:15;11.30;99.90
27506;DHT22;14939;43.596;1.320;2023-03-14T16:12:41;11.10;99.90
27506;DHT22;14939;43.596;1.320;2023-03-14T16:15:08;10.70;99.90
27506;DHT22;14939;43.596;1.320;2023-03-14T16:17:35;10.50;99.90
27506;DHT22;14939;43.596;1.320;2023-03-14T16:20:03;10.40;99.90
27506;DHT22;14939;43.596;1.320;2023-03-14T16:22:29;10.30;99.90
27506;DHT22;14939;43.596;1.320;2023-03-14T16:24:58;10.30;99.90
27506;DHT22;14939;43.596;1.320;2023-03-14T16:27:24;10.60;99.90
27506;DHT22;14939;43.596;1.320;2023-03-14T16:29:49;10.50;99.90
27506;DHT22;14939;43.596;1.320;2023-03-14T16:32:15;11.00;99.90
27506;DHT22;14939;43.596;1.320;2023-03-14T16:34:41;11.40;99.90
27506;DHT22;14939;43.596;1.320;2023-03-14T16:37:06;11.60;99.90
27506;DHT22;14939;43.596;1.320;2023-03-14T16:39:32;11.90;99.90
27506;DHT22;14939;43.596;1.320;2023-03-14T16:41:58;12.00;99.90
27506;DHT22;14939;43.596;1.320;2023-03-14T16:44:24;12.10;99.90
27506;DHT22;14939;43.596;1.320;2023-03-14T16:46:50;12.10;99.90
27506;DHT22;14939;43.596;1.320;2023-03-14T16:49:15;11.80;99.90
27506;DHT22;14939;43.596;1.320;2023-03-14T16:51:41;11.30;99.90